createdAt,value
2022-08-25T00:01:48.310Z,8.7
2022-08-25T00:11:48.110Z,8.9
2022-08-25T00:31:48.348Z,8.9
2022-08-25T00:41:48.371Z,8.8
2022-08-25T01:01:48.475Z,8.8
2022-08-25T01:11:48.393Z,8.7
2022-08-25T01:21:48.406Z,8.8
2022-08-25T01:31:48.436Z,8.9
2022-08-25T01:41:48.436Z,8.9
2022-08-25T01:51:48.472Z,8.7
2022-08-25T02:01:48.529Z,8.7
2022-08-25T02:21:48.337Z,8.9
2022-08-25T02:31:48.551Z,8.9
2022-08-25T02:41:48.348Z,9
2022-08-25T03:01:48.380Z,9.3
2022-08-25T03:11:48.572Z,9.3
2022-08-25T03:21:48.613Z,9.4
2022-08-25T03:31:48.708Z,9.3
2022-08-25T03:41:48.631Z,9.3
2022-08-25T04:41:48.714Z,9.8
2022-08-25T04:51:48.727Z,10
2022-08-25T05:31:50.758Z,10.9
2022-08-25T05:41:48.805Z,11.1
2022-08-25T05:51:48.840Z,11.5
2022-08-25T06:41:48.915Z,12.6
2022-08-25T06:51:48.893Z,12.9
2022-08-25T07:01:49.599Z,13
2022-08-25T07:21:48.958Z,13.2
2022-08-25T07:31:48.990Z,13.2
2022-08-25T07:41:52.003Z,13.5
2022-08-25T07:52:04.205Z,14.4
2022-08-25T08:01:48.918Z,14.1
2022-08-25T08:11:54.328Z,15.1
2022-08-25T08:21:49.031Z,14.6
2022-08-25T08:31:49.117Z,15.2
2022-08-25T08:42:09.591Z,14.3
2022-08-25T08:51:49.060Z,15.6
2022-08-25T09:01:52.599Z,16.8
2022-08-25T09:21:49.125Z,16.3
2022-08-25T09:31:49.211Z,15.8
2022-08-25T09:51:49.160Z,15.5
2022-08-25T10:21:49.215Z,17.3
2022-08-25T10:31:49.217Z,16.8
2022-08-25T10:41:49.305Z,17.7
2022-08-25T11:01:53.436Z,15.4
2022-08-25T11:11:49.283Z,14.7
2022-08-25T11:21:49.288Z,15.6
2022-08-25T11:31:53.020Z,15.7
2022-08-25T11:41:49.324Z,15.9
2022-08-25T12:01:49.360Z,16.7
2022-08-25T12:11:49.366Z,14.7
2022-08-25T12:41:49.463Z,18.4
2022-08-25T12:51:49.273Z,18.4
2022-08-25T13:21:49.489Z,18.2
2022-08-25T13:31:49.935Z,17.6
2022-08-25T13:41:49.528Z,15
2022-08-25T14:01:50.230Z,12.2
2022-08-25T14:11:49.566Z,13.6
2022-08-25T14:21:49.742Z,12.6
2022-08-25T14:31:49.669Z,10.9
2022-08-25T14:41:53.194Z,10.7
2022-08-25T14:51:49.474Z,10.7
2022-08-25T15:01:50.127Z,11.9
2022-08-25T15:11:50.574Z,11.4
2022-08-25T15:21:49.693Z,12.6
2022-08-25T15:31:49.774Z,12.8
2022-08-25T15:51:49.714Z,12.3
2022-08-25T16:01:49.805Z,12.4
2022-08-25T16:11:55.837Z,12.6
2022-08-25T16:21:49.786Z,12
2022-08-25T16:31:54.792Z,11.9
2022-08-25T16:41:49.795Z,11.6
2022-08-25T16:51:49.817Z,10.9
2022-08-25T17:01:49.854Z,11.2
2022-08-25T17:11:49.834Z,11
2022-08-25T17:21:50.084Z,11.5
2022-08-25T17:31:49.872Z,11.3
2022-08-25T17:41:49.921Z,11.1
2022-08-25T17:51:49.896Z,10.9
2022-08-25T18:01:50.054Z,10.7
2022-08-25T18:11:49.940Z,10.7
2022-08-25T18:21:49.942Z,10.3
2022-08-25T18:31:51.942Z,10.3
2022-08-25T18:41:49.970Z,10.2
2022-08-25T18:51:49.973Z,11
2022-08-25T19:01:50.362Z,11
2022-08-25T19:21:50.870Z,10.2
2022-08-25T19:31:50.044Z,10.1
2022-08-25T19:41:49.869Z,10.2
2022-08-25T19:51:51.169Z,10
2022-08-25T20:11:50.095Z,10.1
2022-08-25T20:21:50.134Z,10.2
2022-08-25T20:41:50.160Z,10
2022-08-25T21:01:50.238Z,10.1
2022-08-25T21:11:50.182Z,10.1
2022-08-25T21:21:50.184Z,10.5
2022-08-25T21:31:50.211Z,10.6
2022-08-25T21:41:50.221Z,10.8
2022-08-25T21:51:59.153Z,10.4
2022-08-25T22:01:50.262Z,10.6
2022-08-25T22:11:50.270Z,11.1
2022-08-25T22:21:50.298Z,10.4
2022-08-25T22:31:51.097Z,10.2
2022-08-25T22:41:50.345Z,10.7
2022-08-25T22:51:50.315Z,10.2
2022-08-25T23:11:51.246Z,10.3
2022-08-25T23:21:50.370Z,10.3
2022-08-25T23:31:50.398Z,10.1
2022-08-25T23:41:50.421Z,10.1
